Startpagina
METAR-TAF:

METAR-TAF

Vliegvelden :

Beauvais, Frankrijk

Aéroport de Paris-Beauvais-Tillé

breedte: 49-28N, lengte: 002-07E, hoogte: 109 m

Actueel weer

Dit bericht is 26 minuten geleden gemaakt, om 10:00 UTC
Wind 9 kt uit het zuiden
Temperatuur 17°C
Vochtigheid 59%
Druk 1019 hPa
Zicht 10 km of meer
geen wolken onder 1500 m en geen cumulonimbus

METAR: LFOB 211000Z AUTO 17009KT CAVOK 17/09 Q1019 NOSIG

Tijdstip: 12:26 (10:26 UTC)

Verwachting

Dit bericht is 5 uur en het 26 minuten geleden gemaakt, om 05:00 UTC
Verwachting geldig van 21 om 06 UTC tot 22 om 06 UTC
Wind 5 kt uit het oostzuidoosten
Zicht 10 km of meer
geen wolken onder 1500 m en geen cumulonimbus
Tijdelijke
van 22 om 00 UTC tot 22 om 06 UTC
Zicht: 3000 m
Gebroken wolken op 500 ft
Geheel bewolkt op 1300 ft
motregen, regen

TAF: LFOB 210500Z 2106/2206 12005KT CAVOK TEMPO 2200/2206 3000 DZRA BKN005 OVC013

Waarnemingen en weersverwachtingen van meer dan 4000 vliegvelden (METAR en TAF).

De beschikbare stations zijn de gele en rode punten op de kaart.

Ga met uw muis naar het station om de naam te zien.

Klik dan om waarnemingen en weersverwachtingen te zien.

kaart wijzigen: klik op de groene knoppen met een zwart kruis om in te zoomen, op de groene knop met een streepje om uit te zoomen of op de groene pijlen voor aangrenzende kaarten.


METAR-TAF: